createdAt,value
2016-10-31T00:00:20.123Z,98.91
2016-10-31T00:01:33.424Z,98.72
2016-10-31T00:02:43.908Z,99.06
2016-10-31T00:03:55.308Z,99.01
2016-10-31T00:05:05.344Z,99.2
2016-10-31T00:06:17.569Z,99.4
2016-10-31T00:07:28.381Z,99.01
2016-10-31T00:08:38.801Z,99.2
2016-10-31T00:09:49.655Z,99.4
2016-10-31T00:11:00.392Z,99.4
2016-10-31T00:12:12.559Z,99.3
2016-10-31T00:13:24.326Z,99.01
2016-10-31T00:14:35.496Z,98.63
2016-10-31T00:15:48.091Z,99.01
2016-10-31T00:16:58.646Z,98.91
2016-10-31T00:18:09.481Z,98.43
2016-10-31T00:19:21.481Z,99.2
2016-10-31T00:20:33.133Z,98.72
2016-10-31T00:21:45.250Z,99.1
2016-10-31T00:22:56.351Z,99.3
2016-10-31T00:24:07.229Z,98.24
2016-10-31T00:25:19.461Z,99.1
2016-10-31T00:26:30.290Z,99.01
2016-10-31T00:27:42.302Z,98.91
2016-10-31T00:28:54.108Z,98.24
2016-10-31T00:30:05.601Z,99.01
2016-10-31T00:31:17.822Z,99.01
2016-10-31T00:32:29.910Z,98.82
2016-10-31T00:33:41.362Z,98.63
2016-10-31T00:34:53.585Z,98.43
2016-10-31T00:36:05.635Z,99.01
2016-10-31T00:37:16.735Z,98.82
2016-10-31T00:38:27.528Z,98.72
2016-10-31T00:39:38.732Z,98.82
2016-10-31T00:40:50.546Z,98.43
2016-10-31T00:42:01.965Z,98.34
2016-10-31T00:43:14.135Z,97.86
2016-10-31T00:44:25.824Z,98.53
2016-10-31T00:45:38.737Z,98.14
2016-10-31T00:46:51.143Z,97.96
2016-10-31T00:48:02.071Z,97.96
2016-10-31T00:49:14.436Z,98.05
2016-10-31T00:50:25.524Z,98.34
2016-10-31T00:51:37.520Z,98.34
2016-10-31T00:52:48.280Z,98.82
2016-10-31T00:53:59.159Z,98.72
2016-10-31T00:55:11.603Z,98.53
2016-10-31T00:56:23.046Z,99.01
2016-10-31T00:57:34.153Z,98.82
2016-10-31T00:58:46.201Z,99.01
2016-10-31T00:59:57.979Z,98.77
2016-10-31T01:01:09.451Z,98.29
2016-10-31T01:02:21.645Z,98.86
2016-10-31T01:03:33.145Z,98.86
2016-10-31T01:04:44.412Z,98.58
2016-10-31T01:05:55.830Z,98.58
2016-10-31T01:07:07.872Z,99.34
2016-10-31T01:08:19.734Z,98.86
2016-10-31T01:09:30.833Z,99.54
2016-10-31T01:10:42.642Z,99.73
2016-10-31T01:11:54.898Z,99.82
2016-10-31T01:13:06.604Z,99.73
2016-10-31T01:14:17.391Z,99.99
2016-10-31T01:15:29.667Z,99.99
2016-10-31T01:16:40.982Z,99.99
2016-10-31T01:17:51.418Z,99.99
2016-10-31T01:19:03.173Z,99.99
2016-10-31T01:20:13.489Z,99.99
2016-10-31T01:21:25.815Z,99.99
2016-10-31T01:22:36.003Z,99.99
2016-10-31T01:23:48.005Z,99.99
2016-10-31T01:24:59.816Z,99.99
2016-10-31T01:26:11.655Z,99.99
2016-10-31T01:27:23.561Z,99.99
2016-10-31T01:28:35.455Z,99.99
2016-10-31T01:29:47.010Z,99.99
2016-10-31T01:30:57.670Z,99.99
2016-10-31T01:32:10.412Z,99.99
2016-10-31T01:33:23.271Z,99.99
2016-10-31T01:34:34.536Z,99.99
2016-10-31T01:35:45.551Z,99.99
2016-10-31T01:36:56.656Z,99.99
2016-10-31T01:38:09.533Z,99.99
2016-10-31T01:39:21.896Z,99.99
2016-10-31T01:40:33.969Z,99.99
2016-10-31T01:41:45.216Z,99.99
2016-10-31T01:42:56.434Z,99.99
2016-10-31T01:44:07.326Z,99.99
2016-10-31T01:45:19.529Z,99.99
2016-10-31T01:46:30.167Z,99.99
2016-10-31T01:47:42.919Z,99.99
2016-10-31T01:48:54.579Z,99.99
2016-10-31T01:50:06.222Z,99.99
2016-10-31T01:51:17.510Z,99.82
2016-10-31T01:52:29.576Z,99.92
2016-10-31T01:53:40.277Z,99.73
2016-10-31T01:54:51.868Z,99.58
2016-10-31T01:56:04.522Z,99.87
2016-10-31T01:57:15.282Z,99.87
2016-10-31T01:58:27.013Z,99.87
2016-10-31T01:59:38.449Z,99.58
2016-10-31T02:00:49.739Z,99.77
2016-10-31T02:02:00.424Z,99.49
2016-10-31T02:03:11.432Z,99.49
2016-10-31T02:04:23.250Z,99.29
2016-10-31T02:05:35.189Z,99.1
2016-10-31T02:06:46.019Z,99.1
2016-10-31T02:07:57.393Z,98.62
2016-10-31T02:09:08.936Z,99.05
2016-10-31T02:10:21.652Z,98.96
2016-10-31T02:11:31.590Z,99.39
2016-10-31T02:12:42.352Z,98.96
2016-10-31T02:13:54.009Z,99.87
2016-10-31T02:15:04.140Z,99.87
2016-10-31T02:16:14.666Z,99.96
2016-10-31T02:17:24.864Z,99.96
2016-10-31T02:18:36.561Z,99.96
2016-10-31T02:19:47.950Z,99.96
2016-10-31T02:21:00.776Z,99.68
2016-10-31T02:22:12.008Z,99.99
2016-10-31T02:23:22.904Z,99.99
2016-10-31T02:24:35.035Z,99.99
2016-10-31T02:25:46.274Z,99.99
2016-10-31T02:26:56.615Z,99.99
2016-10-31T02:28:07.976Z,99.99
2016-10-31T02:29:19.218Z,99.99
2016-10-31T02:30:31.184Z,99.99
2016-10-31T02:31:42.979Z,99.99
2016-10-31T02:32:54.427Z,99.99
2016-10-31T02:34:06.528Z,99.99
2016-10-31T02:35:17.963Z,99.99
2016-10-31T02:36:28.580Z,99.99
2016-10-31T02:37:40.153Z,99.99
2016-10-31T02:38:51.949Z,99.99
2016-10-31T02:40:03.544Z,99.99
2016-10-31T02:41:14.981Z,99.96
2016-10-31T02:42:27.040Z,99.99
2016-10-31T02:43:39.059Z,99.99
2016-10-31T02:44:48.966Z,99.96
2016-10-31T02:46:00.099Z,99.99
2016-10-31T02:47:12.417Z,99.99
2016-10-31T02:48:23.703Z,99.99
2016-10-31T02:49:34.342Z,99.99
2016-10-31T02:50:45.076Z,99.99
2016-10-31T02:51:56.409Z,99.99
2016-10-31T02:53:06.945Z,99.99
2016-10-31T02:54:19.719Z,99.99
2016-10-31T02:55:31.697Z,99.99
2016-10-31T02:56:42.835Z,99.99
2016-10-31T02:57:53.540Z,99.99
2016-10-31T02:59:05.761Z,99.99
2016-10-31T03:00:19.104Z,99.99
2016-10-31T03:01:31.821Z,99.99
2016-10-31T03:02:44.039Z,99.99
2016-10-31T03:03:55.607Z,99.99
2016-10-31T03:05:08.116Z,99.99
2016-10-31T03:06:18.605Z,99.99
2016-10-31T03:07:30.595Z,99.99
2016-10-31T03:08:43.762Z,99.99
2016-10-31T03:09:55.690Z,99.99
2016-10-31T03:11:06.909Z,99.63
2016-10-31T03:12:18.320Z,99.63
2016-10-31T03:13:28.843Z,99.99
2016-10-31T03:14:40.656Z,99.99
2016-10-31T03:15:51.843Z,99.99
2016-10-31T03:17:02.461Z,99.99
2016-10-31T03:18:13.852Z,99.99
2016-10-31T03:19:25.962Z,99.99
2016-10-31T03:20:37.380Z,99.99
2016-10-31T03:21:48.560Z,99.99
2016-10-31T03:23:00.391Z,99.99
2016-10-31T03:24:11.695Z,99.99
2016-10-31T03:25:24.044Z,99.99
2016-10-31T03:26:35.621Z,99.99
2016-10-31T03:27:46.805Z,99.99
2016-10-31T03:28:57.842Z,99.99
2016-10-31T03:30:09.387Z,99.99
2016-10-31T03:31:21.214Z,99.99
2016-10-31T03:32:32.942Z,99.99
2016-10-31T03:33:45.588Z,99.99
2016-10-31T03:34:58.309Z,99.82
2016-10-31T03:36:10.411Z,99.99
2016-10-31T03:37:22.119Z,99.99
2016-10-31T03:38:34.110Z,99.99
2016-10-31T03:39:46.000Z,99.99
2016-10-31T03:40:56.743Z,99.99
2016-10-31T03:42:09.385Z,99.99
2016-10-31T03:43:22.048Z,99.99
2016-10-31T03:44:33.225Z,99.99
2016-10-31T03:45:45.337Z,99.99
2016-10-31T03:46:58.043Z,99.99
2016-10-31T03:48:10.863Z,99.99
2016-10-31T03:49:22.201Z,99.73
2016-10-31T03:50:33.641Z,99.53
2016-10-31T03:51:44.371Z,99.63
2016-10-31T03:52:54.732Z,99.91
2016-10-31T03:54:06.249Z,99.53
2016-10-31T03:55:19.411Z,99.53
2016-10-31T03:56:31.081Z,99.63
2016-10-31T03:57:43.843Z,99.82
2016-10-31T03:58:56.071Z,99.68
2016-10-31T04:00:06.596Z,99.58
2016-10-31T04:01:17.888Z,99.19
2016-10-31T04:02:29.160Z,99.01
2016-10-31T04:03:40.832Z,99.34
2016-10-31T04:04:51.947Z,98.86
2016-10-31T04:06:03.503Z,98.91
2016-10-31T04:07:16.008Z,99.44
2016-10-31T04:08:28.426Z,98.96
2016-10-31T04:09:39.155Z,98.57
2016-10-31T04:10:50.806Z,98.67
2016-10-31T04:12:02.696Z,99.05
2016-10-31T04:13:14.537Z,98.81
2016-10-31T04:14:26.572Z,98.86
2016-10-31T04:15:38.725Z,98.57
2016-10-31T04:16:49.039Z,98.67
2016-10-31T04:18:00.097Z,98.72
2016-10-31T04:19:13.295Z,98.72
2016-10-31T04:20:25.000Z,98.81
2016-10-31T04:21:36.242Z,98.81
2016-10-31T04:22:47.197Z,99.05
2016-10-31T04:23:59.371Z,98.77
2016-10-31T04:25:09.753Z,99.15
2016-10-31T04:26:21.151Z,98.86
2016-10-31T04:27:32.250Z,98.67
2016-10-31T04:28:43.037Z,98.91
2016-10-31T04:29:55.212Z,98.86
2016-10-31T04:31:06.695Z,99.1
2016-10-31T04:32:18.415Z,99.1
2016-10-31T04:33:31.098Z,98.91
2016-10-31T04:34:43.033Z,99.68
2016-10-31T04:35:54.476Z,99.87
2016-10-31T04:37:06.224Z,99.87
2016-10-31T04:38:18.483Z,99.68
2016-10-31T04:39:29.226Z,99.87
2016-10-31T04:40:40.947Z,99.96
2016-10-31T04:41:52.971Z,99.99
2016-10-31T04:43:04.331Z,99.77
2016-10-31T04:44:15.735Z,99.87
2016-10-31T04:45:27.825Z,99.99
2016-10-31T04:46:38.637Z,99.99
2016-10-31T04:47:50.676Z,99.99
2016-10-31T04:49:01.216Z,99.99
2016-10-31T04:50:12.556Z,99.99
2016-10-31T04:51:23.404Z,99.99
2016-10-31T04:52:34.353Z,99.99
2016-10-31T04:53:45.198Z,99.99
2016-10-31T04:54:56.684Z,99.99
2016-10-31T04:56:08.049Z,99.99
2016-10-31T04:57:19.119Z,99.99
2016-10-31T04:58:29.992Z,99.99
2016-10-31T04:59:41.718Z,99.87
2016-10-31T05:00:53.571Z,99.87
2016-10-31T05:02:04.937Z,99.99
2016-10-31T05:03:16.142Z,99.87
2016-10-31T05:04:28.013Z,99.68
2016-10-31T05:05:40.822Z,99.77
2016-10-31T05:06:51.992Z,99.58
2016-10-31T05:08:03.517Z,99.58
2016-10-31T05:09:15.500Z,99.39
2016-10-31T05:10:26.968Z,99.48
2016-10-31T05:11:37.729Z,99.68
2016-10-31T05:12:47.992Z,99.39
2016-10-31T05:13:59.652Z,99.29
2016-10-31T05:15:11.623Z,99.19
2016-10-31T05:16:23.790Z,99.1
2016-10-31T05:17:35.462Z,99.19
2016-10-31T05:18:47.575Z,99.1
2016-10-31T05:19:58.819Z,99.19
2016-10-31T05:21:12.091Z,98.86
2016-10-31T05:22:24.775Z,98.24
2016-10-31T05:23:37.024Z,98.81
2016-10-31T05:24:47.784Z,98.24
2016-10-31T05:25:59.521Z,98.62
2016-10-31T05:27:11.674Z,98.81
2016-10-31T05:28:21.795Z,98.81
2016-10-31T05:29:34.014Z,99.43
2016-10-31T05:30:45.680Z,99.63
2016-10-31T05:31:57.142Z,99.05
2016-10-31T05:33:09.106Z,99.24
2016-10-31T05:34:22.285Z,99.48
2016-10-31T05:35:34.843Z,99.68
2016-10-31T05:36:47.620Z,99.91
2016-10-31T05:37:58.413Z,99.91
2016-10-31T05:39:10.271Z,99.43
2016-10-31T05:40:21.638Z,99.99
2016-10-31T05:41:32.527Z,99.91
2016-10-31T05:42:43.574Z,99.72
2016-10-31T05:43:55.930Z,99.82
2016-10-31T05:45:08.085Z,99.43
2016-10-31T05:46:19.646Z,99.82
2016-10-31T05:47:31.324Z,99.82
2016-10-31T05:48:42.459Z,99.68
2016-10-31T05:49:53.088Z,99.39
2016-10-31T05:51:05.268Z,99.48
2016-10-31T05:52:16.721Z,99.82
2016-10-31T05:53:28.253Z,99.99
2016-10-31T05:54:39.742Z,99.72
2016-10-31T05:55:51.971Z,99.82
2016-10-31T05:57:04.053Z,99.72
2016-10-31T05:58:16.199Z,99.99
2016-10-31T05:59:29.036Z,99.63
2016-10-31T06:00:40.638Z,99.99
2016-10-31T06:01:53.400Z,99.99
2016-10-31T06:03:04.653Z,99.91
2016-10-31T06:04:16.096Z,99.99
2016-10-31T06:05:27.599Z,99.99
2016-10-31T06:06:39.607Z,99.82
2016-10-31T06:07:50.468Z,99.99
2016-10-31T06:09:03.011Z,99.91
2016-10-31T06:10:14.539Z,99.99
2016-10-31T06:11:27.718Z,99.99
2016-10-31T06:12:39.668Z,99.91
2016-10-31T06:13:51.485Z,99.99
2016-10-31T06:15:04.208Z,99.99
2016-10-31T06:16:16.231Z,99.99
2016-10-31T06:17:27.789Z,99.99
2016-10-31T06:18:38.542Z,99.99
2016-10-31T06:19:49.303Z,99.99
2016-10-31T06:21:01.124Z,99.99
2016-10-31T06:22:12.047Z,99.99
2016-10-31T06:23:24.621Z,99.99
2016-10-31T06:24:37.497Z,99.82
2016-10-31T06:25:50.271Z,99.39
2016-10-31T06:27:02.175Z,99.99
2016-10-31T06:28:15.018Z,99.63
2016-10-31T06:29:26.920Z,99.87
2016-10-31T06:30:38.356Z,99.87
2016-10-31T06:31:50.565Z,99.39
2016-10-31T06:33:03.231Z,98.91
2016-10-31T06:34:15.156Z,99.68
2016-10-31T06:35:26.968Z,99.1
2016-10-31T06:36:38.821Z,99.1
2016-10-31T06:37:51.048Z,98.43
2016-10-31T06:39:02.192Z,98.72
2016-10-31T06:40:14.434Z,99.29
2016-10-31T06:41:25.974Z,98.33
2016-10-31T06:42:38.119Z,98.43
2016-10-31T06:43:50.263Z,98.43
2016-10-31T06:45:02.410Z,98.91
2016-10-31T06:46:15.064Z,97.95
2016-10-31T06:47:26.970Z,98.24
2016-10-31T06:48:38.663Z,97.76
2016-10-31T06:49:51.186Z,97.85
2016-10-31T06:51:03.465Z,97.85
2016-10-31T06:52:15.749Z,97.38
2016-10-31T06:53:28.442Z,97.47
2016-10-31T06:54:40.248Z,97.95
2016-10-31T06:55:52.955Z,97.47
2016-10-31T06:57:04.134Z,96.99
2016-10-31T06:58:15.229Z,97.28
2016-10-31T06:59:27.821Z,97.38
2016-10-31T07:00:39.997Z,97.28
2016-10-31T07:01:52.695Z,97.47
2016-10-31T07:03:04.654Z,96.89
2016-10-31T07:04:17.079Z,96.75
2016-10-31T07:05:29.614Z,96.27
2016-10-31T07:06:41.500Z,96.27
2016-10-31T07:07:53.767Z,96.37
2016-10-31T07:09:05.844Z,96.56
2016-10-31T07:10:17.214Z,96.27
2016-10-31T07:11:28.507Z,95.7
2016-10-31T07:12:40.820Z,95.51
2016-10-31T07:13:53.074Z,95.7
2016-10-31T07:15:05.145Z,95.98
2016-10-31T07:16:16.546Z,96.13
2016-10-31T07:17:29.173Z,96.08
2016-10-31T07:18:41.065Z,95.98
2016-10-31T07:19:51.939Z,95.7
2016-10-31T07:21:04.570Z,95.65
2016-10-31T07:22:17.352Z,95.75
2016-10-31T07:23:30.181Z,95.75
2016-10-31T07:24:42.874Z,95.75
2016-10-31T07:25:54.722Z,96.13
2016-10-31T07:27:06.208Z,95.94
2016-10-31T07:28:17.220Z,95.75
2016-10-31T07:29:29.805Z,95.75
2016-10-31T07:30:42.456Z,95.55
2016-10-31T07:31:52.748Z,95.46
2016-10-31T07:33:05.545Z,95.07
2016-10-31T07:34:17.220Z,94.49
2016-10-31T07:35:29.727Z,94.12
2016-10-31T07:36:41.807Z,94.31
2016-10-31T07:37:53.063Z,94.4
2016-10-31T07:39:04.468Z,93.73
2016-10-31T07:40:16.682Z,93.63
2016-10-31T07:41:27.814Z,93.44
2016-10-31T07:42:40.118Z,93.63
2016-10-31T07:43:51.436Z,93.25
2016-10-31T07:45:02.700Z,93.15
2016-10-31T07:46:15.423Z,92.53
2016-10-31T07:47:27.948Z,92.63
2016-10-31T07:48:40.297Z,92.14
2016-10-31T07:49:52.611Z,91.96
2016-10-31T07:51:05.372Z,91.38
2016-10-31T07:52:16.665Z,91.76
2016-10-31T07:53:29.236Z,91.38
2016-10-31T07:54:40.130Z,91.76
2016-10-31T07:55:51.924Z,90.9
2016-10-31T07:57:04.700Z,90.8
2016-10-31T07:58:17.112Z,90.9
2016-10-31T07:59:29.253Z,90.8
2016-10-31T08:00:41.103Z,90.7
2016-10-31T08:01:53.572Z,90.17
2016-10-31T08:03:03.845Z,89.89
2016-10-31T08:04:15.933Z,89.98
2016-10-31T08:05:27.869Z,90.27
2016-10-31T08:06:40.641Z,90.46
2016-10-31T08:07:53.459Z,90.17
2016-10-31T08:09:06.286Z,90.27
2016-10-31T08:10:18.453Z,89.69
2016-10-31T08:11:30.685Z,90.46
2016-10-31T08:12:41.373Z,89.79
2016-10-31T08:13:52.662Z,89.93
2016-10-31T08:15:04.614Z,89.93
2016-10-31T08:16:16.260Z,89.83
2016-10-31T08:17:28.975Z,89.16
2016-10-31T08:18:41.657Z,88.06
2016-10-31T08:19:52.656Z,88.24
2016-10-31T08:21:04.930Z,88.06
2016-10-31T08:22:16.933Z,87.67
2016-10-31T08:23:29.202Z,87.67
2016-10-31T08:24:40.970Z,87.29
2016-10-31T08:25:53.035Z,86.99
2016-10-31T08:27:04.417Z,87.96
2016-10-31T08:28:16.121Z,88.34
2016-10-31T08:29:27.951Z,88.34
2016-10-31T08:30:39.841Z,87.86
2016-10-31T08:31:50.203Z,87.76
2016-10-31T08:33:01.812Z,87.38
2016-10-31T08:34:13.118Z,87.48
2016-10-31T08:35:25.021Z,87.19
2016-10-31T08:36:36.303Z,87.13
2016-10-31T08:37:48.130Z,87.09
2016-10-31T08:39:00.521Z,86.27
2016-10-31T08:40:13.791Z,85.88
2016-10-31T08:41:25.368Z,85.98
2016-10-31T08:42:36.984Z,84.87
2016-10-31T08:43:48.463Z,85.64
2016-10-31T08:45:00.717Z,85.35
2016-10-31T08:46:12.862Z,84.97
2016-10-31T08:47:22.709Z,84.67
2016-10-31T08:48:34.661Z,85.21
2016-10-31T08:49:45.325Z,84.48
2016-10-31T08:50:57.695Z,84.67
2016-10-31T08:52:08.561Z,84.58
2016-10-31T08:53:21.361Z,84.67
2016-10-31T08:54:32.369Z,85.5
2016-10-31T08:55:44.581Z,85.64
2016-10-31T08:56:56.682Z,85.5
2016-10-31T08:58:08.446Z,85.6
2016-10-31T08:59:21.027Z,84.58
2016-10-31T09:00:31.794Z,84.58
2016-10-31T09:01:43.223Z,84.67
2016-10-31T09:02:55.942Z,84.97
2016-10-31T09:04:06.346Z,84.58
2016-10-31T09:05:17.787Z,84.73
2016-10-31T09:06:30.100Z,84.54
2016-10-31T09:07:41.385Z,84.63
2016-10-31T09:08:53.769Z,84.25
2016-10-31T09:10:05.425Z,84.58
2016-10-31T09:11:17.316Z,84.54
2016-10-31T09:12:28.836Z,84.92
2016-10-31T09:13:40.188Z,84.06
2016-10-31T09:14:51.336Z,84
2016-10-31T09:16:02.468Z,84.34
2016-10-31T09:17:15.100Z,83.96
2016-10-31T09:18:27.787Z,82.42
2016-10-31T09:19:39.648Z,82.85
2016-10-31T09:20:51.882Z,83.77
2016-10-31T09:22:02.961Z,83.63
2016-10-31T09:23:13.316Z,82.9
2016-10-31T09:24:24.648Z,82.14
2016-10-31T09:25:35.832Z,82.46
2016-10-31T09:26:49.119Z,81.94
2016-10-31T09:28:00.700Z,81.65
2016-10-31T09:29:12.594Z,82.37
2016-10-31T09:30:24.624Z,82.08
2016-10-31T09:31:37.327Z,82.17
2016-10-31T09:32:48.566Z,82.08
2016-10-31T09:34:00.658Z,81.98
2016-10-31T09:35:11.344Z,82.37
2016-10-31T09:36:23.876Z,81.84
2016-10-31T09:37:35.759Z,81.6
2016-10-31T09:38:46.917Z,81.12
2016-10-31T09:39:59.380Z,81.5
2016-10-31T09:41:12.326Z,82.37
2016-10-31T09:42:22.498Z,82.32
2016-10-31T09:43:33.749Z,81.75
2016-10-31T09:44:44.842Z,81.94
2016-10-31T09:45:56.746Z,81.88
2016-10-31T09:47:09.114Z,81.88
2016-10-31T09:48:21.066Z,82.14
2016-10-31T09:49:32.597Z,81.65
2016-10-31T09:50:43.934Z,81.37
2016-10-31T09:51:55.373Z,80.63
2016-10-31T09:53:07.521Z,80.58
2016-10-31T09:54:19.752Z,81.02
2016-10-31T09:55:30.462Z,80.54
2016-10-31T09:56:43.644Z,79.77
2016-10-31T09:57:55.366Z,80.87
2016-10-31T09:59:08.154Z,80.54
2016-10-31T10:00:19.548Z,80.38
2016-10-31T10:01:31.393Z,80.73
2016-10-31T10:02:42.843Z,80.68
2016-10-31T10:03:53.844Z,80.83
2016-10-31T10:05:05.169Z,80.92
2016-10-31T10:06:16.888Z,81.21
2016-10-31T10:07:28.432Z,81.4
2016-10-31T10:08:40.312Z,81.3
2016-10-31T10:09:52.563Z,80.19
2016-10-31T10:11:04.891Z,80.19
2016-10-31T10:12:17.223Z,80.1
2016-10-31T10:13:28.987Z,80.38
2016-10-31T10:14:41.239Z,79.9
2016-10-31T10:15:53.886Z,80.19
2016-10-31T10:17:04.744Z,80.29
2016-10-31T10:18:17.817Z,79.71
2016-10-31T10:19:28.339Z,79.33
2016-10-31T10:20:38.573Z,78.63
2016-10-31T10:21:49.289Z,79.41
2016-10-31T10:23:02.129Z,79.81
2016-10-31T10:24:14.380Z,79.52
2016-10-31T10:25:25.260Z,78.79
2016-10-31T10:26:36.907Z,77.63
2016-10-31T10:27:48.504Z,78.44
2016-10-31T10:29:01.248Z,79.08
2016-10-31T10:30:11.910Z,78.79
2016-10-31T10:31:24.096Z,77.76
2016-10-31T10:32:35.696Z,77.67
2016-10-31T10:33:47.498Z,78.44
2016-10-31T10:34:59.176Z,78.98
2016-10-31T10:36:10.601Z,78.4
2016-10-31T10:37:22.622Z,76.9
2016-10-31T10:38:34.219Z,76.45
2016-10-31T10:39:46.735Z,75.72
2016-10-31T10:40:57.299Z,75.78
2016-10-31T10:42:10.010Z,74.66
2016-10-31T10:43:21.664Z,74.57
2016-10-31T10:44:33.043Z,74.72
2016-10-31T10:45:44.789Z,74.37
2016-10-31T10:46:56.395Z,74.85
2016-10-31T10:48:09.008Z,74.14
2016-10-31T10:49:20.896Z,74.37
2016-10-31T10:50:33.004Z,74.76
2016-10-31T10:51:46.252Z,74.52
2016-10-31T10:52:58.714Z,74.72
2016-10-31T10:54:11.327Z,73.95
2016-10-31T10:55:24.145Z,73.31
2016-10-31T10:56:36.042Z,73.79
2016-10-31T10:57:48.022Z,73.31
2016-10-31T10:59:00.013Z,73.31
2016-10-31T11:00:12.040Z,73.21
2016-10-31T11:01:23.811Z,74.05
2016-10-31T11:02:36.491Z,73.02
2016-10-31T11:03:48.862Z,73.11
2016-10-31T11:04:59.482Z,74.18
2016-10-31T11:06:12.202Z,74.05
2016-10-31T11:07:23.300Z,74.33
2016-10-31T11:08:34.954Z,73.91
2016-10-31T11:09:46.856Z,73.75
2016-10-31T11:10:58.261Z,73.5
2016-10-31T11:12:10.973Z,72.25
2016-10-31T11:13:23.632Z,73.21
2016-10-31T11:14:35.596Z,74.08
2016-10-31T11:15:47.167Z,74.05
2016-10-31T11:16:57.704Z,72.73
2016-10-31T11:18:09.666Z,73.21
2016-10-31T11:19:21.275Z,72.41
2016-10-31T11:20:31.824Z,72.83
2016-10-31T11:21:43.913Z,72.34
2016-10-31T11:22:54.218Z,70.74
2016-10-31T11:24:04.755Z,70.2
2016-10-31T11:25:16.402Z,70.1
2016-10-31T11:26:29.158Z,70.04
2016-10-31T11:27:41.701Z,70.29
2016-10-31T11:28:53.940Z,70.1
2016-10-31T11:30:05.240Z,70.42
2016-10-31T11:31:18.483Z,70.29
2016-10-31T11:32:31.278Z,69.9
2016-10-31T11:33:43.027Z,69.42
2016-10-31T11:34:55.552Z,68.4
2016-10-31T11:36:07.101Z,69.3
2016-10-31T11:37:17.866Z,69.81
2016-10-31T11:38:31.242Z,70.06
2016-10-31T11:39:42.740Z,69.97
2016-10-31T11:40:54.391Z,70.36
2016-10-31T11:42:06.461Z,69.93
2016-10-31T11:43:17.634Z,69.74
2016-10-31T11:44:29.693Z,70.06
2016-10-31T11:45:41.462Z,70.26
2016-10-31T11:46:53.747Z,69.87
2016-10-31T11:48:05.866Z,71.12
2016-10-31T11:49:17.052Z,71.38
2016-10-31T11:50:29.717Z,71.09
2016-10-31T11:51:41.204Z,72.06
2016-10-31T11:52:53.759Z,72.5
2016-10-31T11:54:05.606Z,71.67
2016-10-31T11:55:17.859Z,70.8
2016-10-31T11:56:29.646Z,70.54
2016-10-31T11:57:42.186Z,70.16
2016-10-31T11:58:55.028Z,70
2016-10-31T12:00:06.341Z,70.16
2016-10-31T12:01:18.561Z,69.68
2016-10-31T12:02:31.153Z,69.9
2016-10-31T12:03:42.717Z,71.51
2016-10-31T12:04:55.424Z,70.42
2016-10-31T12:06:06.645Z,69.78
2016-10-31T12:07:18.469Z,68.36
2016-10-31T12:08:30.293Z,68.01
2016-10-31T12:09:43.013Z,69.36
2016-10-31T12:10:54.064Z,69.23
2016-10-31T12:12:07.207Z,69.87
2016-10-31T12:13:18.425Z,69.32
2016-10-31T12:14:29.220Z,69.52
2016-10-31T12:15:40.872Z,69.2
2016-10-31T12:16:52.324Z,69.97
2016-10-31T12:18:02.999Z,71.42
2016-10-31T12:19:13.299Z,72.25
2016-10-31T12:20:25.145Z,73.72
2016-10-31T12:21:36.255Z,73.72
2016-10-31T12:22:47.395Z,73.43
2016-10-31T12:23:58.879Z,72.89
2016-10-31T12:25:11.205Z,72.89
2016-10-31T12:26:23.069Z,72.99
2016-10-31T12:27:35.853Z,73.27
2016-10-31T12:28:47.529Z,73.91
2016-10-31T12:29:59.569Z,73.33
2016-10-31T12:31:11.261Z,72.66
2016-10-31T12:32:21.693Z,73.57
2016-10-31T12:33:33.608Z,72.95
2016-10-31T12:34:44.378Z,73.33
2016-10-31T12:35:54.193Z,73.33
2016-10-31T12:37:05.781Z,72.95
2016-10-31T12:38:19.047Z,72.5
2016-10-31T12:39:32.318Z,72.02
2016-10-31T12:40:44.541Z,71.92
2016-10-31T12:41:55.038Z,72.12
2016-10-31T12:43:06.906Z,72.31
2016-10-31T12:44:19.038Z,72.37
2016-10-31T12:45:29.884Z,71.06
2016-10-31T12:46:41.917Z,70.13
2016-10-31T12:47:54.647Z,70.06
2016-10-31T12:49:06.625Z,70.06
2016-10-31T12:50:18.554Z,71.03
2016-10-31T12:51:30.383Z,71.58
2016-10-31T12:52:42.204Z,71.58
2016-10-31T12:53:53.884Z,72.34
2016-10-31T12:55:06.112Z,72.15
2016-10-31T12:56:18.557Z,71.96
2016-10-31T12:57:29.965Z,72.12
2016-10-31T12:58:41.932Z,71.34
2016-10-31T12:59:54.192Z,71.48
2016-10-31T13:01:04.554Z,72.15
2016-10-31T13:02:16.670Z,72.99
2016-10-31T13:03:27.610Z,74.68
2016-10-31T13:04:39.494Z,74.65
2016-10-31T13:05:50.398Z,74.74
2016-10-31T13:07:02.199Z,74.65
2016-10-31T13:08:14.839Z,74.55
2016-10-31T13:09:26.410Z,74.65
2016-10-31T13:10:39.611Z,75.03
2016-10-31T13:11:52.250Z,75.32
2016-10-31T13:13:03.921Z,75.23
2016-10-31T13:14:15.404Z,74.65
2016-10-31T13:15:27.777Z,74.65
2016-10-31T13:16:39.857Z,74.74
2016-10-31T13:17:52.145Z,75.13
2016-10-31T13:19:03.897Z,75.13
2016-10-31T13:20:16.247Z,75.32
2016-10-31T13:21:26.456Z,75.23
2016-10-31T13:22:38.605Z,75.51
2016-10-31T13:23:49.892Z,75.32
2016-10-31T13:25:02.356Z,75.23
2016-10-31T13:26:12.842Z,74.74
2016-10-31T13:27:25.402Z,73.97
2016-10-31T13:28:36.281Z,74.45
2016-10-31T13:29:48.120Z,74.74
2016-10-31T13:30:58.647Z,75.23
2016-10-31T13:32:10.674Z,75.32
2016-10-31T13:33:22.629Z,75.32
2016-10-31T13:34:33.930Z,75.51
2016-10-31T13:35:45.999Z,75.42
2016-10-31T13:36:58.132Z,75.28
2016-10-31T13:38:11.464Z,75.51
2016-10-31T13:39:22.877Z,75.32
2016-10-31T13:40:35.491Z,75.71
2016-10-31T13:41:48.053Z,75.42
2016-10-31T13:42:59.059Z,75.38
2016-10-31T13:44:10.384Z,75.51
2016-10-31T13:45:21.416Z,75.61
2016-10-31T13:46:33.259Z,75.67
2016-10-31T13:47:44.444Z,75.96
2016-10-31T13:48:56.509Z,76.34
2016-10-31T13:50:09.253Z,76.53
2016-10-31T13:51:21.232Z,76.44
2016-10-31T13:52:32.805Z,76.25
2016-10-31T13:53:44.590Z,75.96
2016-10-31T13:54:55.876Z,75.96
2016-10-31T13:56:07.435Z,75.57
2016-10-31T13:57:19.315Z,75.86
2016-10-31T13:58:31.718Z,76.53
2016-10-31T13:59:43.909Z,76.34
2016-10-31T14:00:55.718Z,76.53
2016-10-31T14:02:06.799Z,76.63
2016-10-31T14:03:20.084Z,76.44
2016-10-31T14:04:32.151Z,76.44
2016-10-31T14:05:43.742Z,76.21
2016-10-31T14:06:55.829Z,76.53
2016-10-31T14:08:07.151Z,76.53
2016-10-31T14:09:19.097Z,76.15
2016-10-31T14:10:30.413Z,76.44
2016-10-31T14:11:43.568Z,76.5
2016-10-31T14:12:56.813Z,76.82
2016-10-31T14:14:08.965Z,76.63
2016-10-31T14:15:20.385Z,76.82
2016-10-31T14:16:32.240Z,76.92
2016-10-31T14:17:42.180Z,76.92
2016-10-31T14:18:54.514Z,76.92
2016-10-31T14:20:05.564Z,77.01
2016-10-31T14:21:17.731Z,77.31
2016-10-31T14:22:28.946Z,77.21
2016-10-31T14:23:39.343Z,76.92
2016-10-31T14:24:50.195Z,76.63
2016-10-31T14:26:00.618Z,77.46
2016-10-31T14:27:13.231Z,77.46
2016-10-31T14:28:24.110Z,77.21
2016-10-31T14:29:35.030Z,77.36
2016-10-31T14:30:46.424Z,77.31
2016-10-31T14:31:57.591Z,77.69
2016-10-31T14:33:10.936Z,77.94
2016-10-31T14:34:22.089Z,77.69
2016-10-31T14:35:32.439Z,77.75
2016-10-31T14:36:45.106Z,77.98
2016-10-31T14:37:57.650Z,77.65
2016-10-31T14:39:08.925Z,77.78
2016-10-31T14:40:20.265Z,77.56
2016-10-31T14:41:33.551Z,77.56
2016-10-31T14:42:44.542Z,76.98
2016-10-31T14:43:55.930Z,77.17
2016-10-31T14:45:07.900Z,76.92
2016-10-31T14:46:20.205Z,77.08
2016-10-31T14:47:31.444Z,77.17
2016-10-31T14:48:43.423Z,77.5
2016-10-31T14:49:54.953Z,77.46
2016-10-31T14:51:06.754Z,77.26
2016-10-31T14:52:20.059Z,77.65
2016-10-31T14:53:32.100Z,77.56
2016-10-31T14:54:43.412Z,77.56
2016-10-31T14:55:56.599Z,77.36
2016-10-31T14:57:08.733Z,77.94
2016-10-31T14:58:20.205Z,77.56
2016-10-31T14:59:31.832Z,77.84
2016-10-31T15:00:44.402Z,78.23
2016-10-31T15:01:55.267Z,78.23
2016-10-31T15:03:06.953Z,78.61
2016-10-31T15:04:18.533Z,78.61
2016-10-31T15:05:30.365Z,78.42
2016-10-31T15:06:40.924Z,78.71
2016-10-31T15:07:53.601Z,78.52
2016-10-31T15:09:06.032Z,78.61
2016-10-31T15:10:17.649Z,79
2016-10-31T15:11:30.312Z,79.1
2016-10-31T15:12:42.281Z,79.28
2016-10-31T15:13:54.523Z,79.19
2016-10-31T15:15:05.950Z,78.9
2016-10-31T15:16:17.601Z,79.38
2016-10-31T15:17:28.932Z,79.38
2016-10-31T15:18:39.847Z,79.1
2016-10-31T15:19:51.440Z,79.1
2016-10-31T15:21:02.562Z,79.38
2016-10-31T15:22:14.837Z,79.1
2016-10-31T15:23:26.452Z,79.77
2016-10-31T15:24:38.392Z,79.86
2016-10-31T15:25:49.998Z,80.06